Time;durP1;ratioP1;P1;durP2;ratioP2;P2;SDS_P1;SDS_P2;PMS_P1;PMS_P2;Temp;Humidity;BMP_temperature;BMP_pressure;BME280_temperature;BME280_humidity;BME280_pressure;Samples;Min_cycle;Max_cycle;Signal;HPM_P1;HPM_P2
2022/07/16 00:03:24;;;;;;;7.50;3.58;;;;;;;14.30;100.00;99070.59;4414544;32;20046;-74
2022/07/16 00:05:50;;;;;;;4.87;2.58;;;;;;;14.37;100.00;99076.53;4415525;32;20068;-76
2022/07/16 00:08:16;;;;;;;4.97;2.15;;;;;;;14.15;100.00;99066.84;4418046;32;20076;-75
2022/07/16 00:10:43;;;;;;;5.05;1.95;;;;;;;14.02;100.00;99037.59;4427119;32;20396;-75
2022/07/16 00:13:09;;;;;;;7.37;2.12;;;;;;;14.14;100.00;99078.75;4427859;32;20161;-75
2022/07/16 00:15:35;;;;;;;7.45;1.90;;;;;;;14.16;100.00;99076.56;4416886;32;20329;-75
2022/07/16 00:20:49;;;;;;;9.63;2.20;;;;;;;14.19;100.00;99082.53;4404621;32;20030;-74
2022/07/16 00:23:15;;;;;;;5.28;2.22;;;;;;;13.90;100.00;99040.59;4430400;32;20390;-76
2022/07/16 00:25:41;;;;;;;7.40;2.03;;;;;;;14.25;100.00;99081.44;4416852;32;20096;-76
2022/07/16 00:28:08;;;;;;;5.60;2.22;;;;;;;14.16;100.00;99071.16;4430619;32;20454;-76
2022/07/16 00:30:35;;;;;;;6.72;2.00;;;;;;;14.07;100.00;99044.91;4430728;32;20060;-76
2022/07/16 00:33:01;;;;;;;6.80;2.33;;;;;;;13.89;100.00;99021.91;4421238;32;20170;-75
2022/07/16 00:35:27;;;;;;;4.65;2.15;;;;;;;14.10;100.00;99055.19;4404718;32;20340;-76
2022/07/16 00:37:54;;;;;;;11.48;1.85;;;;;;;14.07;100.00;99029.47;4417318;32;20035;-74
2022/07/16 00:40:21;;;;;;;3.97;1.85;;;;;;;14.03;100.00;99031.09;4416972;32;20042;-75
2022/07/16 00:42:47;;;;;;;8.77;2.67;;;;;;;14.37;100.00;99073.03;4404453;32;20034;-76
2022/07/16 00:45:13;;;;;;;6.37;2.00;;;;;;;14.34;100.00;99071.66;4418245;32;20061;-76
2022/07/16 00:47:40;;;;;;;6.87;2.12;;;;;;;14.26;100.00;99058.69;4417419;32;20031;-75
2022/07/16 00:50:06;;;;;;;4.85;2.08;;;;;;;14.00;100.00;99018.09;4418211;32;20046;-75
2022/07/16 00:52:36;;;;;;;6.10;2.30;;;;;;;14.19;100.00;99058.16;4416586;32;20074;-76
2022/07/16 00:55:04;;;;;;;19.42;1.95;;;;;;;13.94;100.00;99025.41;4417168;32;20074;-76
2022/07/16 00:57:30;;;;;;;7.40;2.33;;;;;;;14.14;100.00;99067.91;4418293;32;20057;-77
2022/07/16 00:59:57;;;;;;;5.07;1.90;;;;;;;13.86;100.00;99022.44;4420766;32;20069;-73
2022/07/16 01:02:23;;;;;;;8.65;1.75;;;;;;;14.04;100.00;99065.22;4431745;32;20471;-73
2022/07/16 01:04:49;;;;;;;5.80;1.85;;;;;;;14.12;100.00;99053.84;4426582;32;20425;-75
2022/07/16 01:07:16;;;;;;;5.45;1.77;;;;;;;13.97;100.00;99024.06;4430072;32;20090;-76
2022/07/16 01:09:43;;;;;;;10.35;1.62;;;;;;;14.27;100.00;99060.31;4419014;32;20068;-75
2022/07/16 01:12:10;;;;;;;3.92;1.75;;;;;;;14.26;100.00;99064.09;4433113;32;20064;-75
2022/07/16 01:14:37;;;;;;;8.00;2.03;;;;;;;14.18;100.00;99054.63;4419567;32;20060;-76
2022/07/16 01:17:03;;;;;;;8.30;2.28;;;;;;;14.20;100.00;99051.66;4433433;32;20407;-75
2022/07/16 01:19:29;;;;;;;5.47;1.87;;;;;;;13.98;100.00;99039.22;4433027;32;20428;-75
2022/07/16 01:21:56;;;;;;;6.07;1.90;;;;;;;14.08;100.00;99058.16;4417946;32;20060;-74
2022/07/16 01:24:22;;;;;;;9.20;2.00;;;;;;;14.11;100.00;99057.63;4426780;32;20609;-75
2022/07/16 01:26:48;;;;;;;6.35;2.17;;;;;;;13.80;100.00;99008.09;4423081;32;20030;-76
2022/07/16 01:29:15;;;;;;;5.95;2.20;;;;;;;14.09;100.00;99054.38;4417713;32;20039;-75
2022/07/16 01:31:41;;;;;;;7.85;2.10;;;;;;;13.63;100.00;98986.75;4417766;32;20080;-76
2022/07/16 01:34:25;;;;;;;3.85;1.80;;;;;;;14.14;100.00;99048.16;4410280;32;20075;-76
2022/07/16 01:36:59;;;;;;;4.20;2.00;;;;;;;14.19;100.00;99052.75;4417040;32;20464;-77
2022/07/16 01:39:28;;;;;;;3.87;2.25;;;;;;;14.09;100.00;99048.16;4415726;32;20342;-75
2022/07/16 01:41:57;;;;;;;3.70;1.95;;;;;;;13.67;100.00;98982.41;4416498;32;20115;-74
2022/07/16 01:44:24;;;;;;;2.83;1.87;;;;;;;14.08;100.00;99036.50;4421397;32;20128;-76
2022/07/16 01:46:52;;;;;;;9.73;2.08;;;;;;;14.09;100.00;99042.75;4419063;32;20074;-76
2022/07/16 01:49:19;;;;;;;4.57;1.77;;;;;;;13.92;100.00;99003.22;4432518;32;20060;-76
2022/07/16 01:51:45;;;;;;;3.83;1.70;;;;;;;13.70;100.00;98998.09;4429997;32;20033;-76
2022/07/16 01:54:12;;;;;;;6.15;2.08;;;;;;;13.77;100.00;99004.06;4432545;32;20067;-76
2022/07/16 01:56:39;;;;;;;8.93;2.37;;;;;;;13.90;100.00;98996.47;4424145;32;20104;-78
2022/07/16 01:59:06;;;;;;;7.50;2.50;;;;;;;14.09;100.00;99021.09;4432002;32;20096;-76
2022/07/16 02:01:32;;;;;;;6.53;2.05;;;;;;;14.00;100.00;99028.94;4431940;32;20068;-75
2022/07/16 02:03:59;;;;;;;6.05;2.03;;;;;;;13.88;100.00;98993.22;4416492;32;20058;-75
2022/07/16 02:06:26;;;;;;;2.75;2.22;;;;;;;14.24;100.00;99028.38;4416594;32;20057;-76
2022/07/16 02:08:52;;;;;;;4.78;1.65;;;;;;;14.13;100.00;99033.78;4417013;32;20107;-76
2022/07/16 02:11:19;;;;;;;9.80;1.77;;;;;;;13.89;100.00;99032.75;4416672;32;20062;-76
2022/07/16 02:13:52;;;;;;;9.30;1.70;;;;;;;13.52;100.00;98968.91;4417135;32;20421;-77
2022/07/16 02:16:18;;;;;;;10.63;2.03;;;;;;;13.64;100.00;98977.53;4429526;32;20087;-76
2022/07/16 02:18:45;;;;;;;8.73;2.92;;;;;;;13.79;100.00;98982.13;4429258;32;20034;-77
2022/07/16 02:21:11;;;;;;;5.37;2.10;;;;;;;13.88;100.00;98982.38;4417914;32;20060;-75
2022/07/16 02:23:37;;;;;;;12.45;2.85;;;;;;;13.92;100.00;98983.47;4431017;32;20453;-76
2022/07/16 02:26:04;;;;;;;3.50;1.80;;;;;;;14.08;100.00;99017.56;4422570;32;20058;-75
2022/07/16 02:28:30;;;;;;;6.07;2.00;;;;;;;13.88;100.00;98975.09;4403112;32;20386;-75
2022/07/16 02:30:56;;;;;;;10.18;2.08;;;;;;;14.02;100.00;99021.34;4416691;32;20041;-75
2022/07/16 02:33:23;;;;;;;3.30;1.70;;;;;;;14.13;100.00;99020.25;4418925;32;20074;-75
2022/07/16 02:35:49;;;;;;;6.07;2.47;;;;;;;14.07;100.00;99013.25;4431904;32;20031;-75
2022/07/16 02:38:15;;;;;;;2.67;1.30;;;;;;;13.98;100.00;99004.03;4431614;32;20038;-75
2022/07/16 02:40:43;;;;;;;8.65;1.65;;;;;;;13.63;100.00;98981.34;4425528;32;20550;-76
2022/07/16 02:43:10;;;;;;;6.47;2.12;;;;;;;13.85;100.00;99012.69;4419231;32;20406;-76
2022/07/16 02:45:38;;;;;;;5.35;2.12;;;;;;;13.84;100.00;99003.78;4426058;32;20038;-75
2022/07/16 02:48:05;;;;;;;2.75;1.80;;;;;;;13.99;100.00;99008.34;4404430;32;20067;-75
2022/07/16 02:50:32;;;;;;;6.05;2.12;;;;;;;13.99;100.00;99021.88;4431470;32;20083;-75
2022/07/16 02:52:58;;;;;;;6.32;1.55;;;;;;;13.83;100.00;98971.56;4431493;32;20041;-76
2022/07/16 02:55:26;;;;;;;8.75;1.83;;;;;;;13.92;100.00;98967.25;4415460;32;20429;-75
2022/07/16 02:57:52;;;;;;;6.40;2.78;;;;;;;14.15;100.00;99014.56;4415647;32;20038;-76
2022/07/16 03:00:19;;;;;;;5.53;1.85;;;;;;;13.69;100.00;98942.37;4416672;32;20473;-76
2022/07/16 03:02:46;;;;;;;10.48;1.85;;;;;;;13.92;100.00;99005.94;4421440;32;20038;-75
2022/07/16 03:05:14;;;;;;;3.10;1.62;;;;;;;13.88;100.00;99004.03;4422478;32;20543;-76
2022/07/16 03:07:40;;;;;;;5.60;1.80;;;;;;;13.85;100.00;99010.81;4431258;32;20072;-76
2022/07/16 03:10:08;;;;;;;3.75;2.05;;;;;;;13.67;100.00;98955.34;4431306;32;20079;-76
2022/07/16 03:12:35;;;;;;;4.50;1.80;;;;;;;13.87;100.00;98959.13;4431030;32;20444;-76
2022/07/16 03:15:04;;;;;;;8.20;1.95;;;;;;;13.98;100.00;98999.44;4415857;32;20043;-77
2022/07/16 03:17:30;;;;;;;2.03;1.45;;;;;;;13.99;100.00;99006.47;4415118;32;20068;-76
2022/07/16 03:19:57;;;;;;;2.97;1.83;;;;;;;14.01;100.00;98992.66;4414778;32;20030;-75
2022/07/16 03:22:23;;;;;;;3.92;1.50;;;;;;;14.10;100.00;99009.97;4414183;32;20095;-75
2022/07/16 03:24:49;;;;;;;7.87;2.03;;;;;;;13.80;100.00;98954.81;4402519;32;20047;-76
2022/07/16 03:27:16;;;;;;;6.15;2.00;;;;;;;13.88;100.00;98968.84;4416107;32;20445;-75
2022/07/16 03:29:42;;;;;;;14.00;2.28;;;;;;;13.88;100.00;98976.97;4405386;32;20567;-77
2022/07/16 03:32:09;;;;;;;5.53;1.77;;;;;;;14.01;100.00;99008.09;4425014;32;20169;-77
2022/07/16 03:34:35;;;;;;;2.22;1.80;;;;;;;14.14;100.00;98997.50;4419908;32;20052;-77
2022/07/16 03:37:02;;;;;;;7.22;2.12;;;;;;;14.22;100.00;99008.88;4422966;32;20357;-77
2022/07/16 03:39:28;;;;;;;4.72;1.90;;;;;;;14.25;100.00;99002.87;4416381;32;20326;-76
2022/07/16 03:41:54;;;;;;;5.47;1.73;;;;;;;14.23;100.00;99010.50;4414718;32;20042;-75
2022/07/16 03:44:21;;;;;;;3.67;1.65;;;;;;;14.24;100.00;99001.28;4415787;32;20043;-77
2022/07/16 03:46:47;;;;;;;6.60;2.10;;;;;;;14.05;100.00;98961.25;4416081;32;20050;-77
2022/07/16 03:49:13;;;;;;;3.28;1.55;;;;;;;14.30;100.00;99000.19;4416731;32;20046;-77
2022/07/16 03:51:40;;;;;;;3.03;1.90;;;;;;;14.34;100.00;99006.66;4415566;32;20894;-77
2022/07/16 03:54:07;;;;;;;12.57;4.97;;;;;;;14.37;100.00;99016.94;4416202;32;20359;-77
2022/07/16 03:56:34;;;;;;;11.50;3.60;;;;;;;14.08;100.00;98971.53;4420130;32;20072;-77
2022/07/16 03:59:00;;;;;;;6.47;2.22;;;;;;;14.14;100.00;98997.50;4415834;32;20042;-77
2022/07/16 04:01:27;;;;;;;7.80;3.80;;;;;;;13.85;100.00;98962.09;4414295;32;20055;-76
2022/07/16 04:03:54;;;;;;;11.07;2.50;;;;;;;13.84;100.00;98954.25;4415796;32;20046;-75
2022/07/16 04:06:21;;;;;;;10.10;1.98;;;;;;;13.98;100.00;98980.47;4429354;32;20037;-76
2022/07/16 04:08:48;;;;;;;2.67;1.75;;;;;;;14.04;100.00;98954.22;4431606;32;20159;-77
2022/07/16 04:11:14;;;;;;;6.40;1.73;;;;;;;14.39;100.00;98993.13;4433705;32;20038;-76
2022/07/16 04:13:41;;;;;;;7.35;1.77;;;;;;;14.19;100.00;98993.97;4420520;32;20173;-77
2022/07/16 04:16:08;;;;;;;10.90;1.85;;;;;;;14.12;100.00;99004.28;4434228;32;20056;-77
2022/07/16 04:18:36;;;;;;;4.32;1.73;;;;;;;13.94;100.00;98976.69;4433883;32;20090;-75
2022/07/16 04:21:05;;;;;;;8.48;2.05;;;;;;;14.23;100.00;98999.66;4427269;32;20077;-74
2022/07/16 04:23:32;;;;;;;2.00;1.52;;;;;;;14.11;100.00;98986.44;4417473;32;20042;-74
2022/07/16 04:25:59;;;;;;;7.32;3.25;;;;;;;14.27;100.00;98987.19;4431705;32;20099;-74
2022/07/16 04:28:25;;;;;;;5.35;1.83;;;;;;;14.16;100.00;98983.69;4433734;32;20034;-74
2022/07/16 04:30:51;;;;;;;10.52;2.00;;;;;;;14.02;100.00;98955.56;4433715;32;20943;-76
2022/07/16 04:33:18;;;;;;;6.20;2.25;;;;;;;14.29;100.00;98993.16;4419542;32;20046;-75
2022/07/16 04:35:44;;;;;;;3.05;1.80;;;;;;;14.28;100.00;98996.94;4426221;32;20065;-75
2022/07/16 04:38:10;;;;;;;3.42;2.12;;;;;;;14.32;100.00;98987.19;4417961;32;20039;-75
2022/07/16 04:40:37;;;;;;;7.50;1.77;;;;;;;14.32;100.00;98970.94;4416149;32;20392;-76
2022/07/16 04:43:04;;;;;;;3.65;1.67;;;;;;;14.23;100.00;98978.00;4418320;32;20104;-77
2022/07/16 04:45:32;;;;;;;4.55;2.30;;;;;;;14.67;100.00;99001.72;4406781;32;20038;-77
2022/07/16 04:47:58;;;;;;;7.43;2.05;;;;;;;14.67;100.00;98988.16;4416833;32;20050;-75
2022/07/16 04:50:24;;;;;;;5.57;1.92;;;;;;;14.25;100.00;98938.72;4417794;32;20427;-76
2022/07/16 04:52:57;;;;;;;8.32;2.53;;;;;;;14.54;100.00;98995.78;4417337;32;20100;-76
2022/07/16 04:55:24;;;;;;;5.25;2.12;;;;;;;14.26;100.00;98950.38;4404209;32;20064;-76
2022/07/16 04:57:50;;;;;;;3.60;1.77;;;;;;;14.41;100.00;98953.03;4433459;32;20030;-75
2022/07/16 05:00:16;;;;;;;9.48;1.73;;;;;;;14.45;100.00;98945.16;4419225;32;20025;-75
2022/07/16 05:02:58;;;;;;;2.25;1.80;;;;;;;14.27;100.00;98946.56;4419300;32;20046;-75
2022/07/16 05:05:26;;;;;;;9.63;1.87;;;;;;;14.32;100.00;98949.25;4426117;32;20063;-76
2022/07/16 05:07:53;;;;;;;14.57;2.80;;;;;;;14.24;100.00;98979.63;4416752;32;20068;-75
2022/07/16 05:10:20;;;;;;;6.35;2.50;;;;;;;14.42;100.00;98983.62;4432646;32;20382;-76
2022/07/16 05:12:47;;;;;;;4.78;1.90;;;;;;;14.26;100.00;98945.75;4429145;32;20052;-75
2022/07/16 05:15:14;;;;;;;5.18;1.80;;;;;;;14.60;100.00;98983.06;4431148;32;20086;-76
2022/07/16 05:17:40;;;;;;;8.90;2.03;;;;;;;14.60;100.00;98974.09;4432958;32;20414;-76
2022/07/16 05:20:07;;;;;;;3.17;1.60;;;;;;;14.65;100.00;98987.66;4432006;32;20100;-74
2022/07/16 05:22:34;;;;;;;3.53;1.23;;;;;;;14.34;100.00;98941.66;4431286;32;20111;-74
2022/07/16 05:25:00;;;;;;;2.15;1.40;;;;;;;14.35;100.00;98944.09;4432677;32;20049;-77
2022/07/16 05:27:26;;;;;;;5.07;1.85;;;;;;;14.61;100.00;98986.56;4433178;32;20424;-75
2022/07/16 05:29:53;;;;;;;5.43;1.73;;;;;;;14.95;100.00;98981.28;4433220;32;20089;-75
2022/07/16 05:32:19;;;;;;;1.70;1.15;;;;;;;14.87;100.00;98971.81;4423507;32;20068;-74
2022/07/16 05:34:45;;;;;;;2.78;1.55;;;;;;;14.86;100.00;98980.22;4420381;32;20064;-74
2022/07/16 05:37:12;;;;;;;4.55;1.75;;;;;;;15.02;100.00;98972.81;4427256;32;20037;-74
2022/07/16 05:39:38;;;;;;;7.22;2.60;;;;;;;15.21;100.00;98971.06;4432516;32;20055;-74
2022/07/16 05:42:04;;;;;;;6.80;2.15;;;;;;;15.12;100.00;98964.59;4436579;32;20051;-75
2022/07/16 05:44:31;;;;;;;3.87;1.73;;;;;;;15.03;100.00;98958.16;4420572;32;20059;-76
2022/07/16 05:46:57;;;;;;;7.05;1.98;;;;;;;15.09;100.00;98973.31;4416951;32;20086;-73
2022/07/16 05:49:24;;;;;;;7.65;1.50;;;;;;;15.26;100.00;98962.88;4416566;32;20064;-76
2022/07/16 05:51:50;;;;;;;8.82;1.92;;;;;;;15.07;100.00;98932.09;4402644;32;20050;-74
2022/07/16 05:54:16;;;;;;;5.18;1.85;;;;;;;15.47;100.00;98946.47;4414292;32;20072;-74
2022/07/16 05:56:42;;;;;;;4.32;1.90;;;;;;;15.31;100.00;98963.94;4416185;32;20027;-75
2022/07/16 05:59:09;;;;;;;6.15;1.98;;;;;;;15.52;100.00;98959.97;4420074;32;20450;-74
2022/07/16 06:01:36;;;;;;;4.55;1.70;;;;;;;15.31;100.00;98915.12;4435052;32;20040;-75
2022/07/16 06:04:03;;;;;;;6.55;1.55;;;;;;;15.47;100.00;98915.81;4444371;32;20034;-78
2022/07/16 06:06:29;;;;;;;3.47;1.80;;;;;;;15.56;100.00;98955.63;4431624;32;20062;-77
2022/07/16 06:08:55;;;;;;;10.25;1.70;;;;;;;15.32;100.00;98922.97;4419600;32;20806;-76
2022/07/16 06:11:22;;;;;;;4.78;2.08;;;;;;;15.48;100.00;98926.37;4422162;32;20371;-77
2022/07/16 06:13:49;;;;;;;13.65;2.75;;;;;;;15.88;100.00;98954.28;4416981;32;20054;-76
2022/07/16 06:16:15;;;;;;;6.82;1.60;;;;;;;16.16;100.00;98951.81;4428330;32;20050;-77
2022/07/16 06:18:42;;;;;;;3.17;1.55;;;;;;;15.99;100.00;98957.69;4417943;32;20030;-76
2022/07/16 06:21:09;;;;;;;5.90;2.28;;;;;;;15.82;100.00;98917.41;4402026;32;20054;-76
2022/07/16 06:26:08;;;;;;;13.13;2.10;;;;;;;16.08;100.00;98944.28;4419611;32;20400;-76
2022/07/16 06:28:34;;;;;;;5.47;1.75;;;;;;;15.85;100.00;98914.13;4425433;32;20054;-76
2022/07/16 06:31:01;;;;;;;6.15;2.33;;;;;;;16.28;100.00;98954.13;4430538;32;20033;-75
2022/07/16 06:33:28;;;;;;;6.22;2.15;;;;;;;16.32;100.00;98950.56;4429246;32;20363;-76
2022/07/16 06:35:54;;;;;;;5.78;1.42;;;;;;;16.20;100.00;98920.25;4427623;32;20348;-75
2022/07/16 06:38:21;;;;;;;6.35;1.92;;;;;;;16.66;100.00;98949.59;4427849;32;20046;-74
2022/07/16 06:40:48;;;;;;;6.18;1.87;;;;;;;16.53;100.00;98934.00;4419447;32;20059;-76
2022/07/16 06:43:18;;;;;;;7.53;1.73;;;;;;;16.29;100.00;98917.69;4419950;32;20042;-75
2022/07/16 06:45:44;;;;;;;1.65;1.52;;;;;;;16.13;100.00;98911.63;4402681;32;20215;-76
2022/07/16 06:48:11;;;;;;;2.42;1.52;;;;;;;16.45;100.00;98932.72;4422628;32;20035;-76
2022/07/16 06:50:37;;;;;;;4.47;1.60;;;;;;;16.44;100.00;98952.03;4421208;32;20067;-76
2022/07/16 06:53:04;;;;;;;2.25;1.83;;;;;;;16.26;100.00;98919.09;4415105;32;20140;-77
2022/07/16 06:55:30;;;;;;;4.72;1.50;;;;;;;16.29;100.00;98913.09;4421564;32;20026;-76
2022/07/16 06:57:57;;;;;;;7.53;1.40;;;;;;;16.54;100.00;98946.47;4425318;32;20181;-76
2022/07/16 07:00:23;;;;;;;6.60;1.58;;;;;;;16.31;100.00;98908.16;4420161;32;20119;-77
2022/07/16 07:02:49;;;;;;;4.53;1.45;;;;;;;16.38;100.00;98915.16;4422271;32;20432;-76
2022/07/16 07:05:16;;;;;;;4.10;1.42;;;;;;;16.51;100.00;98930.75;4430677;32;20139;-76
2022/07/16 07:07:42;;;;;;;3.03;1.50;;;;;;;16.19;100.00;98901.53;4420085;32;20235;-76
2022/07/16 07:10:09;;;;;;;8.05;1.90;;;;;;;16.36;100.00;98906.50;4425794;32;20038;-76
2022/07/16 07:12:36;;;;;;;3.72;1.23;;;;;;;16.67;100.00;98934.91;4419940;32;20058;-76
2022/07/16 07:15:04;;;;;;;8.30;1.77;;;;;;;16.75;100.00;98938.84;4417489;32;20412;-77
2022/07/16 07:17:31;;;;;;;6.70;1.50;;;;;;;16.46;100.00;98890.06;4425472;32;20033;-77
2022/07/16 07:19:57;;;;;;;3.85;1.33;;;;;;;16.44;100.00;98851.50;4412596;32;20054;-76
2022/07/16 07:22:23;;;;;;;2.00;1.50;;;;;;;16.64;100.00;98889.28;4417263;32;20037;-77
2022/07/16 07:24:50;;;;;;;7.15;2.12;;;;;;;16.60;100.00;98893.66;4409167;32;20046;-77
2022/07/16 07:27:18;;;;;;;3.92;1.30;;;;;;;16.97;100.00;98916.56;4429543;32;20062;-75
2022/07/16 07:29:45;;;;;;;2.47;1.30;;;;;;;17.05;100.00;98918.59;4420682;32;20046;-76
2022/07/16 07:32:12;;;;;;;8.27;1.83;;;;;;;16.93;100.00;98877.47;4415088;32;20051;-77
2022/07/16 07:34:38;;;;;;;6.82;1.17;;;;;;;17.27;100.00;98919.91;4419986;32;20080;-75
2022/07/16 07:37:05;;;;;;;3.83;1.95;;;;;;;17.45;100.00;98903.84;4428991;32;20034;-76
2022/07/16 07:39:32;;;;;;;1.85;0.85;;;;;;;17.22;100.00;98890.06;4405936;32;20390;-77
2022/07/16 07:41:58;;;;;;;10.48;1.50;;;;;;;17.22;100.00;98884.62;4402728;32;20060;-76
2022/07/16 07:44:24;;;;;;;8.52;1.30;;;;;;;17.47;100.00;98917.97;4428538;32;20486;-77
2022/07/16 07:46:51;;;;;;;2.70;0.88;;;;;;;17.12;100.00;98901.09;4427266;32;20081;-74
2022/07/16 07:49:17;;;;;;;3.03;1.08;;;;;;;17.39;100.00;98920.28;4430055;32;20524;-76
2022/07/16 07:51:44;;;;;;;4.07;1.27;;;;;;;17.54;100.00;98874.84;4430520;32;20041;-76
2022/07/16 07:54:10;;;;;;;12.75;2.08;;;;;;;17.32;94.22;98854.53;4421533;32;20042;-75
2022/07/16 07:56:37;;;;;;;4.78;1.10;;;;;;;17.84;91.07;98916.22;4427324;32;20214;-76
2022/07/16 07:59:03;;;;;;;2.53;1.30;;;;;;;17.86;97.25;98873.19;4430023;32;20071;-75
2022/07/16 08:01:29;;;;;;;3.05;0.95;;;;;;;17.40;96.76;98870.16;4426033;32;20485;-79
2022/07/16 08:03:57;;;;;;;2.80;1.58;;;;;;;18.00;92.71;98876.75;4423105;32;20071;-76
2022/07/16 08:06:23;;;;;;;4.53;1.48;;;;;;;17.62;97.40;98850.44;4423300;32;20078;-76
2022/07/16 08:08:49;;;;;;;4.40;1.87;;;;;;;17.79;90.35;98860.75;4423041;32;20041;-76
2022/07/16 08:11:16;;;;;;;1.48;1.10;;;;;;;18.12;91.91;98890.66;4429758;32;20065;-76
2022/07/16 08:13:43;;;;;;;10.70;1.77;;;;;;;18.11;89.23;98889.03;4428640;32;20056;-75
2022/07/16 08:16:10;;;;;;;1.20;1.10;;;;;;;18.36;87.71;98884.16;4427731;32;20038;-77
2022/07/16 08:18:36;;;;;;;9.48;1.45;;;;;;;18.65;82.97;98885.75;4431008;32;20060;-76
2022/07/16 08:21:02;;;;;;;3.47;1.17;;;;;;;18.70;76.46;98880.19;4421835;32;20094;-78
2022/07/16 08:26:14;;;;;;;3.40;1.20;;;;;;;18.78;80.70;98879.47;4423244;32;20091;-75
2022/07/16 08:28:42;;;;;;;3.72;1.37;;;;;;;19.27;80.62;98887.06;4408647;32;20069;-77
2022/07/16 08:31:09;;;;;;;3.10;1.20;;;;;;;19.11;77.39;98821.94;4425079;32;20038;-76
2022/07/16 08:33:36;;;;;;;3.85;1.30;;;;;;;19.41;72.77;98890.53;4414531;32;20042;-78
2022/07/16 08:36:03;;;;;;;2.37;1.17;;;;;;;19.46;70.98;98865.03;4415087;32;20060;-77
2022/07/16 08:38:29;;;;;;;5.65;1.75;;;;;;;19.40;73.32;98878.00;4418034;32;20283;-77
2022/07/16 08:40:56;;;;;;;4.37;1.17;;;;;;;19.71;76.27;98882.69;4400879;32;20060;-77
2022/07/16 08:43:23;;;;;;;8.98;1.58;;;;;;;19.10;78.94;98885.84;4418806;32;20384;-77
2022/07/16 08:45:50;;;;;;;5.85;1.48;;;;;;;19.32;81.10;98854.19;4422623;32;20035;-77
2022/07/16 08:48:19;;;;;;;3.53;1.40;;;;;;;19.36;79.82;98882.47;4415561;32;20064;-76
2022/07/16 08:50:46;;;;;;;5.68;1.60;;;;;;;19.30;80.38;98878.25;4415580;32;20488;-76
2022/07/16 08:53:14;;;;;;;1.35;1.10;;;;;;;18.93;78.83;98858.44;4400516;32;20034;-76
2022/07/16 08:55:42;;;;;;;1.25;1.12;;;;;;;18.82;78.95;98852.38;4414811;32;20048;-75
2022/07/16 08:58:08;;;;;;;4.28;1.65;;;;;;;19.02;77.79;98884.66;4418538;32;20014;-76
2022/07/16 09:00:35;;;;;;;2.58;1.40;;;;;;;19.05;76.74;98877.75;4424535;32;20250;-77
2022/07/16 09:03:03;;;;;;;4.82;1.15;;;;;;;19.30;74.78;98887.25;4421025;32;20050;-76
2022/07/16 09:05:30;;;;;;;7.57;1.30;;;;;;;19.22;76.12;98866.97;4426871;32;20480;-76
2022/07/16 09:07:56;;;;;;;2.65;1.37;;;;;;;19.03;70.32;98897.19;4421596;32;20064;-76
2022/07/16 09:10:36;;;;;;;11.82;2.08;;;;;;;19.02;70.22;98856.56;4416400;32;20059;-75
2022/07/16 09:13:04;;;;;;;1.20;0.88;;;;;;;19.54;68.09;98903.28;4423103;32;20022;-76
2022/07/16 09:15:34;;;;;;;3.40;1.02;;;;;;;18.96;70.53;98893.28;4426960;32;20046;-74
2022/07/16 09:18:21;;;;;;;5.95;1.45;;;;;;;19.50;69.74;98882.41;4423689;32;20081;-76
2022/07/16 09:20:58;;;;;;;1.73;0.90;;;;;;;19.64;69.40;98887.78;4419737;32;20046;-75
2022/07/16 09:23:26;;;;;;;4.90;1.40;;;;;;;18.85;70.56;98896.22;4420861;32;20077;-77
2022/07/16 09:25:56;;;;;;;4.68;1.10;;;;;;;19.24;71.06;98877.56;4422625;32;20043;-77
2022/07/16 09:28:23;;;;;;;4.70;1.10;;;;;;;19.32;68.08;98886.94;4416276;32;20768;-75
2022/07/16 09:30:50;;;;;;;1.02;0.95;;;;;;;19.21;67.59;98849.00;4431429;32;20092;-76
2022/07/16 09:33:23;;;;;;;4.90;0.95;;;;;;;19.22;67.64;98893.47;4423025;32;20042;-77
2022/07/16 09:38:49;;;;;;;2.72;1.10;;;;;;;19.55;66.70;98883.06;4421715;32;20274;-76
2022/07/16 09:41:16;;;;;;;3.08;1.00;;;;;;;19.62;62.35;98859.97;4422096;32;20351;-75
2022/07/16 09:43:43;;;;;;;2.72;1.10;;;;;;;19.39;64.50;98827.25;4424716;32;20095;-75
2022/07/16 09:46:16;;;;;;;3.10;1.10;;;;;;;19.75;64.11;98834.47;4422179;32;20088;-77
2022/07/16 09:48:44;;;;;;;1.25;1.12;;;;;;;19.41;65.25;98839.47;4421944;32;20083;-76
2022/07/16 09:51:25;;;;;;;5.20;1.25;;;;;;;19.47;66.25;98850.28;4422282;32;20075;-76
2022/07/16 09:53:58;;;;;;;11.07;2.95;;;;;;;19.69;64.03;98811.16;4422461;32;20089;-77
2022/07/16 09:56:27;;;;;;;1.73;1.35;;;;;;;20.28;62.02;98852.69;4416098;32;20062;-77
2022/07/16 09:58:56;;;;;;;8.93;1.48;;;;;;;19.76;59.67;98836.13;4416947;32;20097;-77
2022/07/16 10:01:23;;;;;;;4.65;1.50;;;;;;;19.84;63.25;98851.75;4407378;32;20044;-75
2022/07/16 10:03:51;;;;;;;2.05;1.40;;;;;;;20.07;62.95;98843.47;4418028;32;20116;-76
2022/07/16 10:06:18;;;;;;;1.15;0.75;;;;;;;19.66;63.87;98803.63;4415917;32;20337;-75
2022/07/16 10:08:45;;;;;;;1.70;1.30;;;;;;;19.89;62.39;98835.22;4404388;32;20086;-75
2022/07/16 10:11:12;;;;;;;3.90;1.00;;;;;;;20.47;60.67;98837.91;4419060;32;20321;-78
2022/07/16 10:13:43;;;;;;;4.07;1.27;;;;;;;20.08;62.44;98842.34;4430561;32;20105;-77
2022/07/16 10:16:10;;;;;;;6.60;1.08;;;;;;;19.41;62.38;98775.88;4426663;32;20038;-76
2022/07/16 10:18:40;;;;;;;2.25;0.90;;;;;;;20.18;60.38;98841.25;4418654;32;20371;-76
2022/07/16 10:21:11;;;;;;;6.47;1.02;;;;;;;19.77;58.20;98794.84;4424730;32;20075;-74
2022/07/16 10:23:40;;;;;;;1.15;1.05;;;;;;;20.54;58.98;98832.00;4420841;32;20076;-75
2022/07/16 10:26:12;;;;;;;2.17;1.17;;;;;;;19.92;59.43;98807.25;4424619;32;20046;-76
2022/07/16 10:28:54;;;;;;;2.25;1.05;;;;;;;20.13;60.81;98828.53;4422119;32;20091;-76
2022/07/16 10:32:26;;;;;;;10.13;1.90;;;;;;;19.74;61.33;98830.16;4424743;32;20050;-73
2022/07/16 10:34:35;;;;;;;1.80;1.00;;;;;;;20.39;61.07;98822.31;4422335;32;20046;-75
2022/07/16 10:37:04;;;;;;;1.73;0.90;;;;;;;20.19;59.92;98838.19;4421668;32;20423;-74
2022/07/16 10:39:31;;;;;;;1.75;0.80;;;;;;;19.89;59.68;98769.62;4416057;32;20042;-74
2022/07/16 10:42:03;;;;;;;2.58;0.85;;;;;;;20.22;62.06;98826.63;4406081;32;20420;-75
2022/07/16 10:44:48;;;;;;;1.98;1.87;;;;;;;20.13;62.91;98834.00;4423220;32;20387;-75
2022/07/16 10:47:15;;;;;;;3.78;0.80;;;;;;;20.13;62.57;98806.66;4402648;32;20888;-75
2022/07/16 10:49:43;;;;;;;0.73;0.73;;;;;;;20.31;64.11;98819.25;4417377;32;20038;-75
2022/07/16 10:52:14;;;;;;;1.70;0.85;;;;;;;19.63;66.28;98779.66;4415393;32;20050;-75
2022/07/16 10:54:49;;;;;;;7.18;0.90;;;;;;;20.45;65.89;98799.16;4422780;32;20043;-75
2022/07/16 10:57:17;;;;;;;2.50;1.10;;;;;;;20.51;64.22;98800.59;4421067;32;20417;-74
2022/07/16 10:59:46;;;;;;;6.37;1.15;;;;;;;20.81;62.12;98798.06;4410129;32;20059;-75
2022/07/16 11:02:15;;;;;;;8.73;1.10;;;;;;;20.52;64.11;98796.75;4419281;32;20046;-75
2022/07/16 11:04:46;;;;;;;1.08;0.90;;;;;;;20.24;66.77;98807.19;4421608;32;20379;-76
2022/07/16 11:07:21;;;;;;;3.40;0.70;;;;;;;20.69;62.74;98801.44;4427103;32;20064;-75
2022/07/16 11:09:53;;;;;;;0.73;0.73;;;;;;;20.20;64.33;98785.16;4430769;32;20177;-76
2022/07/16 11:12:30;;;;;;;0.98;0.85;;;;;;;20.51;63.11;98812.34;4430069;32;20075;-76
2022/07/16 11:14:59;;;;;;;0.98;0.98;;;;;;;20.35;59.74;98769.41;4429015;32;20110;-77
2022/07/16 11:17:29;;;;;;;10.48;1.33;;;;;;;20.50;57.61;98796.25;4415966;32;20054;-76
2022/07/16 11:19:58;;;;;;;0.60;0.60;;;;;;;20.35;60.06;98794.81;4427989;32;20039;-76
2022/07/16 11:22:28;;;;;;;2.87;0.65;;;;;;;20.30;59.57;98794.97;4426884;32;20086;-76
2022/07/16 11:24:58;;;;;;;10.45;0.73;;;;;;;20.09;64.25;98800.25;4407318;32;20138;-75
2022/07/16 11:27:26;;;;;;;6.87;0.95;;;;;;;20.29;62.16;98787.88;4415826;32;20077;-77
2022/07/16 11:29:56;;;;;;;9.98;0.98;;;;;;;20.14;64.44;98779.00;4423516;32;20088;-76
2022/07/16 11:32:23;;;;;;;0.62;0.62;;;;;;;20.13;62.11;98780.13;4421637;32;20072;-75
2022/07/16 11:34:50;;;;;;;0.68;0.60;;;;;;;19.98;63.55;98779.81;4415529;32;20071;-75
2022/07/16 11:37:22;;;;;;;1.80;0.80;;;;;;;20.06;60.76;98779.00;4417087;32;20058;-75
2022/07/16 11:39:58;;;;;;;0.93;0.62;;;;;;;20.30;61.68;98773.87;4422287;32;20236;-75
2022/07/16 11:42:24;;;;;;;4.57;0.93;;;;;;;20.46;60.80;98732.41;4428009;32;20071;-78